createdAt,value
2017-01-17T00:00:40.715Z,71.58
2017-01-17T00:01:51.440Z,71.58
2017-01-17T00:03:01.799Z,71.48
2017-01-17T00:04:12.136Z,71.67
2017-01-17T00:05:22.885Z,71.48
2017-01-17T00:06:33.630Z,71.58
2017-01-17T00:07:43.978Z,72.05
2017-01-17T00:08:53.920Z,71.48
2017-01-17T00:10:04.255Z,71.48
2017-01-17T00:11:14.591Z,72.05
2017-01-17T00:12:24.933Z,71.77
2017-01-17T00:13:34.879Z,71.77
2017-01-17T00:14:45.636Z,71.67
2017-01-17T00:15:56.373Z,72.24
2017-01-17T00:17:06.767Z,71.67
2017-01-17T00:18:16.331Z,72.33
2017-01-17T00:19:27.084Z,71.77
2017-01-17T00:20:37.421Z,72.14
2017-01-17T00:21:48.157Z,71.77
2017-01-17T00:22:58.908Z,71.77
2017-01-17T00:24:09.245Z,71.67
2017-01-17T00:25:19.200Z,71.77
2017-01-17T00:26:29.964Z,71.48
2017-01-17T00:27:40.708Z,71.58
2017-01-17T00:28:50.659Z,72.05
2017-01-17T00:30:01.428Z,71.39
2017-01-17T00:31:11.773Z,71.77
2017-01-17T00:32:22.111Z,71.77
2017-01-17T00:33:32.453Z,71.86
2017-01-17T00:34:42.819Z,72.05
2017-01-17T00:35:53.160Z,71.77
2017-01-17T00:37:03.112Z,72.14
2017-01-17T00:38:13.863Z,71.77
2017-01-17T00:39:24.217Z,71.67
2017-01-17T00:40:34.555Z,72.05
2017-01-17T00:41:45.300Z,72.14
2017-01-17T00:42:55.258Z,71.67
2017-01-17T00:44:05.611Z,71.77
2017-01-17T00:45:15.970Z,71.58
2017-01-17T00:46:26.310Z,72.05
2017-01-17T00:47:36.282Z,72.05
2017-01-17T00:48:47.018Z,71.86
2017-01-17T00:49:57.775Z,72.14
2017-01-17T00:51:07.731Z,72.24
2017-01-17T00:52:18.084Z,72.05
2017-01-17T00:53:28.429Z,72.05
2017-01-17T00:54:39.171Z,71.86
2017-01-17T00:55:49.552Z,71.86
2017-01-17T00:56:59.910Z,72.05
2017-01-17T00:58:10.651Z,71.95
2017-01-17T00:59:21.405Z,71.86
2017-01-17T01:00:32.141Z,71.92
2017-01-17T01:01:42.486Z,72.05
2017-01-17T01:02:53.218Z,72.05
2017-01-17T01:04:03.963Z,72.14
2017-01-17T01:05:14.699Z,71.86
2017-01-17T01:06:25.037Z,72.14
2017-01-17T01:07:35.379Z,72.05
2017-01-17T01:08:46.141Z,71.95
2017-01-17T01:09:56.087Z,71.92
2017-01-17T01:11:06.814Z,72.05
2017-01-17T01:12:17.181Z,72.02
2017-01-17T01:13:27.532Z,71.95
2017-01-17T01:14:37.893Z,72.02
2017-01-17T01:15:48.241Z,72.05
2017-01-17T01:16:58.587Z,71.73
2017-01-17T01:18:09.325Z,72.02
2017-01-17T01:19:20.086Z,72.02
2017-01-17T01:20:30.450Z,72.02
2017-01-17T01:21:40.799Z,72.02
2017-01-17T01:22:51.545Z,72.02
2017-01-17T01:24:02.288Z,71.83
2017-01-17T01:25:12.643Z,71.92
2017-01-17T01:26:23.370Z,71.83
2017-01-17T01:27:34.129Z,71.73
2017-01-17T01:28:44.869Z,71.83
2017-01-17T01:29:55.631Z,71.83
2017-01-17T01:31:05.584Z,71.92
2017-01-17T01:32:16.319Z,71.64
2017-01-17T01:33:27.060Z,71.83
2017-01-17T01:34:37.814Z,71.83
2017-01-17T01:35:48.545Z,71.83
2017-01-17T01:36:59.282Z,71.83
2017-01-17T01:38:09.619Z,71.83
2017-01-17T01:39:20.003Z,71.73
2017-01-17T01:40:30.735Z,71.92
2017-01-17T01:41:41.482Z,71.83
2017-01-17T01:42:52.224Z,71.83
2017-01-17T01:44:02.802Z,71.64
2017-01-17T01:45:13.167Z,71.64
2017-01-17T01:46:23.501Z,71.64
2017-01-17T01:47:34.254Z,72.67
2017-01-17T01:48:44.994Z,72.58
2017-01-17T01:49:55.743Z,72.58
2017-01-17T01:51:06.476Z,72.3
2017-01-17T01:52:17.212Z,72.49
2017-01-17T01:53:27.964Z,72.58
2017-01-17T01:54:38.685Z,72.58
2017-01-17T01:55:49.087Z,72.39
2017-01-17T01:56:59.833Z,72.39
2017-01-17T01:58:09.770Z,72.3
2017-01-17T01:59:20.524Z,72.3
2017-01-17T02:00:31.328Z,72.2
2017-01-17T02:01:41.330Z,71.86
2017-01-17T02:02:51.339Z,71.86
2017-01-17T02:04:01.349Z,71.95
2017-01-17T02:05:12.167Z,71.77
2017-01-17T02:06:22.962Z,71.86
2017-01-17T02:07:33.744Z,71.86
2017-01-17T02:08:44.125Z,71.58
2017-01-17T02:09:54.863Z,71.77
2017-01-17T02:11:05.650Z,71.86
2017-01-17T02:12:16.417Z,71.77
2017-01-17T02:13:27.167Z,71.67
2017-01-17T02:14:37.904Z,71.67
2017-01-17T02:15:48.641Z,71.86
2017-01-17T02:16:58.589Z,71.58
2017-01-17T02:18:08.155Z,71.86
2017-01-17T02:19:18.901Z,71.86
2017-01-17T02:20:29.240Z,71.86
2017-01-17T02:21:39.981Z,71.67
2017-01-17T02:22:50.717Z,71.77
2017-01-17T02:24:01.072Z,71.95
2017-01-17T02:25:11.803Z,72.33
2017-01-17T02:26:22.566Z,71.67
2017-01-17T02:27:32.929Z,71.67
2017-01-17T02:28:43.278Z,71.86
2017-01-17T02:29:52.432Z,72.33
2017-01-17T02:31:02.773Z,72.33
2017-01-17T02:32:12.710Z,72.52
2017-01-17T02:33:23.465Z,72.52
2017-01-17T02:34:33.022Z,72.52
2017-01-17T02:35:43.411Z,72.33
2017-01-17T02:36:54.160Z,72.62
2017-01-17T02:38:04.890Z,72.71
2017-01-17T02:39:15.221Z,72.52
2017-01-17T02:40:25.969Z,72.52
2017-01-17T02:41:35.920Z,72.43
2017-01-17T02:42:46.298Z,72.62
2017-01-17T02:43:57.142Z,72.43
2017-01-17T02:45:07.983Z,72.33
2017-01-17T02:46:17.995Z,72.52
2017-01-17T02:47:28.807Z,72.33
2017-01-17T02:48:39.217Z,72.33
2017-01-17T02:49:49.950Z,72.43
2017-01-17T02:51:00.321Z,72.43
2017-01-17T02:52:11.095Z,72.43
2017-01-17T02:53:21.831Z,72.52
2017-01-17T02:54:32.172Z,72.52
2017-01-17T02:55:42.910Z,72.43
2017-01-17T02:56:53.652Z,72.24
2017-01-17T02:58:03.597Z,72.43
2017-01-17T02:59:13.933Z,72.24
2017-01-17T03:00:24.715Z,72.43
2017-01-17T03:01:35.472Z,72.43
2017-01-17T03:33:27.714Z,70.05
2017-01-17T03:34:38.076Z,70.72
2017-01-17T03:35:48.805Z,71.37
2017-01-17T03:36:59.555Z,72.41
2017-01-17T03:38:09.894Z,73.45
2017-01-17T03:39:20.238Z,73.45
2017-01-17T03:40:31.002Z,74.11
2017-01-17T03:41:41.757Z,74.11
2017-01-17T03:42:52.105Z,74.02
2017-01-17T03:44:02.856Z,73.93
2017-01-17T03:45:13.642Z,73.96
2017-01-17T03:46:24.019Z,74.15
2017-01-17T03:47:34.755Z,73.86
2017-01-17T03:48:45.507Z,73.58
2017-01-17T03:49:56.274Z,73.39
2017-01-17T03:51:07.016Z,73.52
2017-01-17T03:52:16.958Z,73.43
2017-01-17T03:53:26.934Z,73.14
2017-01-17T03:54:37.287Z,73.43
2017-01-17T03:55:48.054Z,73.24
2017-01-17T03:56:58.815Z,73.24
2017-01-17T03:58:08.361Z,72.77
2017-01-17T03:59:19.093Z,72.96
2017-01-17T04:00:29.475Z,72.49
2017-01-17T04:01:40.440Z,72.49
2017-01-17T04:02:50.785Z,72.39
2017-01-17T04:04:01.535Z,72.62
2017-01-17T04:05:11.879Z,72.71
2017-01-17T04:06:22.618Z,72.62
2017-01-17T04:07:32.983Z,72.43
2017-01-17T04:08:43.329Z,72.62
2017-01-17T04:09:54.065Z,72.8
2017-01-17T04:11:04.800Z,72.43
2017-01-17T04:12:15.537Z,72.71
2017-01-17T04:13:25.911Z,72.8
2017-01-17T04:14:36.247Z,72.62
2017-01-17T04:15:47.022Z,72.52
2017-01-17T04:16:57.759Z,72.24
2017-01-17T04:18:08.526Z,72.62
2017-01-17T04:19:18.473Z,72.52
2017-01-17T04:20:28.049Z,72.33
2017-01-17T04:21:38.783Z,72.14
2017-01-17T04:22:48.734Z,72.33
2017-01-17T04:23:59.475Z,72.33
2017-01-17T04:25:10.219Z,71.86
2017-01-17T04:26:20.998Z,72.24
2017-01-17T04:27:31.777Z,72.33
2017-01-17T04:28:42.545Z,71.95
2017-01-17T04:29:53.284Z,71.67
2017-01-17T04:31:03.655Z,72.8
2017-01-17T04:32:14.392Z,72.9
2017-01-17T04:33:24.349Z,72.71
2017-01-17T04:34:35.081Z,72.14
2017-01-17T04:35:45.433Z,71.86
2017-01-17T04:36:55.814Z,72.05
2017-01-17T04:38:06.159Z,72.8
2017-01-17T04:39:16.909Z,72.05
2017-01-17T04:40:27.250Z,72.05
2017-01-17T04:41:37.992Z,71.86
2017-01-17T04:42:48.764Z,71.86
2017-01-17T04:43:59.103Z,72.14
2017-01-17T04:45:09.855Z,72.05
2017-01-17T04:46:20.640Z,72.14
2017-01-17T04:47:30.992Z,72.24
2017-01-17T04:48:41.738Z,72.43
2017-01-17T04:49:52.093Z,72.24
2017-01-17T04:51:02.889Z,72.05
2017-01-17T04:52:13.232Z,72.05
2017-01-17T04:53:23.979Z,72.05
2017-01-17T04:54:34.312Z,72.24
2017-01-17T04:55:45.058Z,72.24
2017-01-17T04:56:55.795Z,72.33
2017-01-17T04:58:05.755Z,71.86
2017-01-17T04:59:16.098Z,72.33
2017-01-17T05:00:26.835Z,72.8
2017-01-17T05:01:37.183Z,72.33
2017-01-17T05:02:47.913Z,72.33
2017-01-17T05:03:58.265Z,72.05
2017-01-17T05:05:08.216Z,72.24
2017-01-17T05:06:18.558Z,71.86
2017-01-17T05:07:29.306Z,71.95
2017-01-17T05:08:39.652Z,72.05
2017-01-17T05:09:49.988Z,71.95
2017-01-17T05:10:59.940Z,72.05
2017-01-17T05:12:10.687Z,72.14
2017-01-17T05:13:21.023Z,72.9
2017-01-17T05:14:31.366Z,72.05
2017-01-17T05:15:42.101Z,71.95
2017-01-17T05:16:52.440Z,72.24
2017-01-17T05:18:02.384Z,72.33
2017-01-17T05:19:12.717Z,72.33
2017-01-17T05:20:23.055Z,71.86
2017-01-17T05:21:33.001Z,71.86
2017-01-17T05:22:43.357Z,71.86
2017-01-17T05:23:53.704Z,71.86
2017-01-17T05:25:04.432Z,71.95
2017-01-17T05:26:15.171Z,71.67
2017-01-17T05:27:25.903Z,72.33
2017-01-17T05:28:35.886Z,72.33
2017-01-17T05:29:46.637Z,72.33
2017-01-17T05:30:56.623Z,71.95
2017-01-17T05:32:07.355Z,72.14
2017-01-17T05:33:18.089Z,72.05
2017-01-17T05:34:28.830Z,71.67
2017-01-17T05:35:39.181Z,71.86
2017-01-17T05:36:49.129Z,71.95
2017-01-17T05:37:59.876Z,72.43
2017-01-17T05:39:10.216Z,72.33
2017-01-17T05:40:20.953Z,72.43
2017-01-17T05:41:31.331Z,72.71
2017-01-17T05:42:40.887Z,72.14
2017-01-17T05:43:51.662Z,72.33
2017-01-17T05:45:02.415Z,72.43
2017-01-17T05:46:13.157Z,72.43
2017-01-17T05:47:23.917Z,72.24
2017-01-17T05:48:32.705Z,72.33
2017-01-17T05:49:43.054Z,72.14
2017-01-17T05:50:53.788Z,72.52
2017-01-17T05:52:04.145Z,72.33
2017-01-17T05:53:13.708Z,72.52
2017-01-17T05:54:24.472Z,72.24
2017-01-17T05:55:35.239Z,72.33
2017-01-17T05:56:45.972Z,72.52
2017-01-17T05:57:56.318Z,72.33
2017-01-17T05:59:06.670Z,72.33
2017-01-17T06:00:17.394Z,72.33
2017-01-17T06:01:27.760Z,72.33
2017-01-17T06:02:38.117Z,72.14
2017-01-17T06:03:48.457Z,72.43
2017-01-17T06:04:58.818Z,72.33
2017-01-17T06:06:08.770Z,72.33
2017-01-17T06:07:19.526Z,72.33
2017-01-17T06:08:29.518Z,72.62
2017-01-17T06:09:40.256Z,72.14
2017-01-17T06:10:50.633Z,72.14
2017-01-17T06:12:01.356Z,72.33
2017-01-17T06:13:11.690Z,72.14
2017-01-17T06:14:22.027Z,72.33
2017-01-17T06:15:31.989Z,72.52
2017-01-17T06:16:42.748Z,72.62
2017-01-17T06:17:53.494Z,72.62
2017-01-17T06:19:04.237Z,72.62
2017-01-17T06:20:14.978Z,72.62
2017-01-17T06:21:25.314Z,72.71
2017-01-17T06:22:35.655Z,72.33
2017-01-17T06:23:46.435Z,72.14
2017-01-17T06:24:57.182Z,72.43
2017-01-17T06:26:06.729Z,72.43
2017-01-17T06:27:17.066Z,72.52
2017-01-17T06:28:27.409Z,72.33
2017-01-17T06:29:37.351Z,72.71
2017-01-17T06:30:47.721Z,72.14
2017-01-17T06:31:58.096Z,72.33
2017-01-17T06:33:08.429Z,71.95
2017-01-17T06:34:18.762Z,72.24
2017-01-17T06:35:29.115Z,72.43
2017-01-17T06:36:39.885Z,72.33
2017-01-17T06:37:49.438Z,72.14
2017-01-17T06:39:00.169Z,72.14
2017-01-17T06:40:09.741Z,72.24
2017-01-17T06:41:20.491Z,72.43
2017-01-17T06:42:31.259Z,72.24
2017-01-17T06:43:41.619Z,72.37
2017-01-17T06:44:52.350Z,72.33
2017-01-17T06:46:02.719Z,72.28
2017-01-17T06:47:13.081Z,72.47
2017-01-17T06:48:23.434Z,72.47
2017-01-17T06:49:33.808Z,72.37
2017-01-17T06:50:44.551Z,72.56
2017-01-17T06:51:54.900Z,72.28
2017-01-17T06:53:05.245Z,72.28
2017-01-17T06:54:15.990Z,72.56
2017-01-17T06:55:26.742Z,72.28
2017-01-17T06:56:37.510Z,72.47
2017-01-17T06:57:47.860Z,72.28
2017-01-17T06:58:58.218Z,72.18
2017-01-17T07:00:08.279Z,71.9
2017-01-17T07:01:19.016Z,72.09
2017-01-17T07:02:29.354Z,72.28
2017-01-17T07:03:38.929Z,72.28
2017-01-17T07:04:49.275Z,71.99
2017-01-17T07:06:00.022Z,72.28
2017-01-17T07:07:10.775Z,72.28
2017-01-17T07:08:21.517Z,72.09
2017-01-17T07:09:32.262Z,72.28
2017-01-17T07:10:43.001Z,72.28
2017-01-17T07:11:53.350Z,72.18
2017-01-17T07:13:02.513Z,72.28
2017-01-17T07:14:12.860Z,72.09
2017-01-17T07:15:23.632Z,72.18
2017-01-17T07:16:34.379Z,72.47
2017-01-17T07:17:45.115Z,72.28
2017-01-17T07:18:55.878Z,71.99
2017-01-17T07:20:06.233Z,72.18
2017-01-17T07:21:16.205Z,72.09
2017-01-17T07:22:26.166Z,71.9
2017-01-17T07:23:36.913Z,72.85
2017-01-17T07:24:47.650Z,72.47
2017-01-17T07:25:57.601Z,71.99
2017-01-17T07:27:07.949Z,72.28
2017-01-17T07:28:18.685Z,72.09
2017-01-17T07:29:29.038Z,72.47
2017-01-17T07:30:38.998Z,72.09
2017-01-17T07:31:49.337Z,72.28
2017-01-17T07:33:00.106Z,72.47
2017-01-17T07:34:10.449Z,72.31
2017-01-17T07:35:20.801Z,72.28
2017-01-17T07:36:31.552Z,72.31
2017-01-17T07:37:41.504Z,72.6
2017-01-17T07:38:52.236Z,72.41
2017-01-17T07:40:02.632Z,72.41
2017-01-17T07:41:12.989Z,72.56
2017-01-17T07:42:23.382Z,72.31
2017-01-17T07:43:33.753Z,72.78
2017-01-17T07:44:44.504Z,72.6
2017-01-17T07:45:55.233Z,72.5
2017-01-17T07:47:05.993Z,72.6
2017-01-17T07:48:15.936Z,72.41
2017-01-17T07:49:26.280Z,72.78
2017-01-17T07:50:36.229Z,71.93
2017-01-17T07:51:46.966Z,71.84
2017-01-17T07:52:57.705Z,71.84
2017-01-17T07:54:07.668Z,72.03
2017-01-17T07:55:18.015Z,72.03
2017-01-17T07:56:28.752Z,72.12
2017-01-17T07:57:39.109Z,72.12
2017-01-17T07:58:49.844Z,72.31
2017-01-17T08:00:00.206Z,72.12
2017-01-17T08:01:10.547Z,72.22
2017-01-17T08:02:21.293Z,72.03
2017-01-17T08:03:32.026Z,72.03
2017-01-17T08:04:42.757Z,72.22
2017-01-17T08:05:53.510Z,72.41
2017-01-17T08:07:04.257Z,72.31
2017-01-17T08:08:14.628Z,72.22
2017-01-17T08:09:25.354Z,72.12
2017-01-17T08:10:35.322Z,72.25
2017-01-17T08:11:44.873Z,71.97
2017-01-17T08:12:55.234Z,72.34
2017-01-17T08:14:05.936Z,72.16
2017-01-17T08:15:17.407Z,72.16
2017-01-17T08:16:29.004Z,72.16
2017-01-17T08:17:40.386Z,71.97
2017-01-17T08:18:51.588Z,71.97
2017-01-17T08:20:03.071Z,71.88
2017-01-17T08:21:13.797Z,71.78
2017-01-17T08:22:24.552Z,72.53
2017-01-17T08:23:35.296Z,71.78
2017-01-17T08:24:45.646Z,71.78
2017-01-17T08:25:55.992Z,72.44
2017-01-17T08:27:06.779Z,72.44
2017-01-17T08:28:17.555Z,71.88
2017-01-17T08:29:28.317Z,71.97
2017-01-17T08:30:38.266Z,72.06
2017-01-17T08:31:48.617Z,71.88
2017-01-17T08:32:59.419Z,71.97
2017-01-17T08:34:09.800Z,71.78
2017-01-17T08:35:19.757Z,71.97
2017-01-17T08:36:30.114Z,72.16
2017-01-17T08:37:40.066Z,72.06
2017-01-17T08:38:50.416Z,72.25
2017-01-17T08:40:00.759Z,72.16
2017-01-17T08:41:11.112Z,72.25
2017-01-17T08:42:21.848Z,72.16
2017-01-17T08:43:32.594Z,72.25
2017-01-17T08:44:42.941Z,71.97
2017-01-17T08:45:52.896Z,71.78
2017-01-17T08:47:03.649Z,71.97
2017-01-17T08:48:13.212Z,71.78
2017-01-17T08:49:23.951Z,72.16
2017-01-17T08:50:34.693Z,71.78
2017-01-17T08:51:45.445Z,72.06
2017-01-17T08:52:55.026Z,72.06
2017-01-17T08:54:05.759Z,71.97
2017-01-17T08:55:16.105Z,72.25
2017-01-17T08:56:26.462Z,71.88
2017-01-17T08:57:36.798Z,71.72
2017-01-17T08:58:46.765Z,71.91
2017-01-17T08:59:57.151Z,71.91
2017-01-17T09:01:06.693Z,71.81
2017-01-17T09:02:17.426Z,72
2017-01-17T09:03:28.157Z,71.72
2017-01-17T09:04:38.535Z,71.62
2017-01-17T09:05:49.276Z,71.53
2017-01-17T09:06:59.238Z,71.53
2017-01-17T09:08:09.983Z,71.72
2017-01-17T09:09:20.339Z,71.91
2017-01-17T09:10:30.296Z,72
2017-01-17T09:11:41.074Z,72.1
2017-01-17T09:12:51.035Z,71.81
2017-01-17T09:14:01.437Z,71.72
2017-01-17T09:15:11.801Z,71.62
2017-01-17T09:16:22.561Z,71.81
2017-01-17T09:17:32.901Z,71.53
2017-01-17T09:18:43.664Z,71.53
2017-01-17T09:19:54.000Z,71.34
2017-01-17T09:21:04.742Z,72
2017-01-17T09:22:15.139Z,71.91
2017-01-17T09:23:25.530Z,71.62
2017-01-17T09:24:35.496Z,71.62
2017-01-17T09:25:46.248Z,70.97
2017-01-17T09:26:57.036Z,71.15
2017-01-17T09:28:07.791Z,70.78
2017-01-17T09:29:18.530Z,70.9
2017-01-17T09:30:28.491Z,69.96
2017-01-17T09:31:38.471Z,70.18
2017-01-17T09:32:48.667Z,69.71
2017-01-17T09:33:59.143Z,69.52
2017-01-17T09:35:09.082Z,69.04
2017-01-17T09:36:19.424Z,69.8
2017-01-17T09:37:29.782Z,70.28
2017-01-17T09:38:40.133Z,70.75
2017-01-17T09:39:50.878Z,70.94
2017-01-17T09:41:01.625Z,70.28
2017-01-17T09:42:11.987Z,70.47
2017-01-17T09:43:22.732Z,70.65
2017-01-17T09:44:33.470Z,70.84
2017-01-17T09:45:43.408Z,71.03
2017-01-17T09:46:54.177Z,71.95
2017-01-17T09:48:04.538Z,71.38
2017-01-17T09:49:14.127Z,71.57
2017-01-17T09:50:24.881Z,71.28
2017-01-17T09:51:34.836Z,70.75
2017-01-17T09:52:45.594Z,70.75
2017-01-17T09:53:55.925Z,70.75
2017-01-17T09:55:06.666Z,70.65
2017-01-17T09:56:17.423Z,70.56
2017-01-17T09:57:28.184Z,71.6
2017-01-17T09:58:38.554Z,71.51
2017-01-17T09:59:49.357Z,71.13
2017-01-17T10:01:00.127Z,71.6
2017-01-17T10:02:10.888Z,70.84
2017-01-17T10:03:21.627Z,70.75
2017-01-17T10:04:31.617Z,71.19
2017-01-17T10:05:41.995Z,71.57
2017-01-17T10:06:52.345Z,71.95
2017-01-17T10:08:03.099Z,71.95
2017-01-17T10:09:13.862Z,71.95
2017-01-17T10:10:24.249Z,71.95
2017-01-17T10:11:34.999Z,71.85
2017-01-17T10:12:45.349Z,71.47
2017-01-17T10:13:56.134Z,71.85
2017-01-17T10:15:06.472Z,71.47
2017-01-17T10:16:17.252Z,71.28
2017-01-17T10:17:27.994Z,71.32
2017-01-17T10:18:38.336Z,71.32
2017-01-17T10:19:49.074Z,71.57
2017-01-17T10:20:59.036Z,71.28
2017-01-17T10:22:09.788Z,71.8
2017-01-17T10:23:20.160Z,71.6
2017-01-17T10:24:30.917Z,71.51
2017-01-17T10:25:41.676Z,71.76
2017-01-17T10:26:52.038Z,71.19
2017-01-17T10:28:01.994Z,71.28
2017-01-17T10:29:12.336Z,71.28
2017-01-17T10:30:23.117Z,71.66
2017-01-17T10:31:33.499Z,70.84
2017-01-17T10:32:43.846Z,71.03
2017-01-17T10:33:54.220Z,70.47
2017-01-17T10:35:04.574Z,69.71
2017-01-17T10:36:14.926Z,70.12
2017-01-17T10:37:25.678Z,70.4
2017-01-17T10:38:36.070Z,70.65
2017-01-17T10:39:46.021Z,70.56
2017-01-17T10:40:56.377Z,71.03
2017-01-17T10:42:07.145Z,71.13
2017-01-17T10:43:17.983Z,70.94
2017-01-17T10:44:27.943Z,70.84
2017-01-17T10:45:38.300Z,71.6
2017-01-17T10:46:49.047Z,71.22
2017-01-17T10:47:59.395Z,71.51
2017-01-17T10:49:09.760Z,71.8
2017-01-17T10:50:20.522Z,71.41
2017-01-17T10:51:30.860Z,71.41
2017-01-17T10:52:41.201Z,71.8
2017-01-17T10:53:51.955Z,71.89
2017-01-17T10:55:02.323Z,71.89
2017-01-17T10:56:12.717Z,71.8
2017-01-17T10:57:22.673Z,71.6
2017-01-17T10:58:32.620Z,71.7
2017-01-17T10:59:42.565Z,71.51
2017-01-17T11:00:52.548Z,71.8
2017-01-17T11:02:03.298Z,72.08
2017-01-17T11:03:14.056Z,71.6
2017-01-17T11:04:24.838Z,72.08
2017-01-17T11:05:35.606Z,71.8
2017-01-17T11:06:45.967Z,71.98
2017-01-17T11:07:55.933Z,71.98
2017-01-17T11:09:06.356Z,71.8
2017-01-17T11:10:16.331Z,71.51
2017-01-17T11:11:27.087Z,71.6
2017-01-17T11:12:37.842Z,71.7
2017-01-17T11:13:48.621Z,71.8
2017-01-17T11:14:58.973Z,72.36
2017-01-17T11:16:09.361Z,71.89
2017-01-17T11:17:19.721Z,71.98
2017-01-17T11:18:30.472Z,71.89
2017-01-17T11:19:40.858Z,71.7
2017-01-17T11:20:51.624Z,72.08
2017-01-17T11:22:01.998Z,71.98
2017-01-17T11:23:12.761Z,72.36
2017-01-17T11:24:22.719Z,71.89
2017-01-17T11:25:33.497Z,72.17
2017-01-17T11:26:44.291Z,72.04
2017-01-17T11:27:55.067Z,72.71
2017-01-17T11:29:05.414Z,72.52
2017-01-17T11:30:15.397Z,72.71
2017-01-17T11:31:25.386Z,72.42
2017-01-17T11:32:36.121Z,72.42
2017-01-17T11:33:46.466Z,72.33
2017-01-17T11:34:57.243Z,72.52
2017-01-17T11:36:07.585Z,72.42
2017-01-17T11:37:18.332Z,72.52
2017-01-17T11:38:28.678Z,72.52
2017-01-17T11:39:39.419Z,72.52
2017-01-17T11:40:48.598Z,72.29
2017-01-17T11:41:59.345Z,71.91
2017-01-17T11:43:10.110Z,72.29
2017-01-17T11:44:20.867Z,72
2017-01-17T11:45:31.270Z,72.38
2017-01-17T11:46:41.612Z,72.29
2017-01-17T11:47:51.993Z,72.38
2017-01-17T11:49:02.772Z,72.38
2017-01-17T11:50:13.183Z,72.52
2017-01-17T11:51:23.553Z,72.38
2017-01-17T11:52:33.938Z,72.57
2017-01-17T11:53:44.317Z,72.38
2017-01-17T11:54:54.740Z,72.52
2017-01-17T11:56:05.128Z,72.67
2017-01-17T11:57:15.928Z,72.48
2017-01-17T11:58:26.715Z,72.77
2017-01-17T11:59:37.080Z,72.52
2017-01-17T12:00:47.831Z,72.67
2017-01-17T12:01:57.020Z,72.71
2017-01-17T12:03:07.359Z,72.8
2017-01-17T12:04:17.716Z,71.85
2017-01-17T12:05:28.462Z,71.85
2017-01-17T12:06:38.440Z,72.42
2017-01-17T12:07:48.457Z,72.52
2017-01-17T12:08:59.238Z,72.8
2017-01-17T12:10:09.996Z,72.61
2017-01-17T12:11:20.390Z,72.71
2017-01-17T12:12:30.360Z,72.61
2017-01-17T12:13:41.126Z,72.52
2017-01-17T12:14:51.483Z,72.89
2017-01-17T12:16:02.234Z,72.89
2017-01-17T12:17:13.020Z,72.71
2017-01-17T12:18:23.423Z,71.85
2017-01-17T12:19:33.790Z,72.52
2017-01-17T12:20:44.173Z,72.8
2017-01-17T12:21:54.539Z,72.52
2017-01-17T12:23:04.917Z,72.61
2017-01-17T12:24:14.872Z,72.57
2017-01-17T12:25:25.620Z,72.33
2017-01-17T12:26:36.372Z,72.48
2017-01-17T12:27:47.138Z,72.29
2017-01-17T12:28:57.490Z,72.29
2017-01-17T12:30:07.053Z,72.29
2017-01-17T12:31:17.400Z,72.42
2017-01-17T12:32:28.145Z,72.42
2017-01-17T12:33:37.747Z,72.8
2017-01-17T12:34:48.531Z,71.85
2017-01-17T12:35:59.279Z,72.14
2017-01-17T12:37:09.631Z,72.23
2017-01-17T12:38:20.382Z,72.04
2017-01-17T12:39:30.761Z,72.04
2017-01-17T12:40:41.511Z,71.85
2017-01-17T12:41:51.894Z,72.71
2017-01-17T12:43:02.256Z,72.61
2017-01-17T12:44:12.612Z,72.52
2017-01-17T12:45:22.585Z,72.52
2017-01-17T12:46:33.346Z,72.52
2017-01-17T12:47:44.093Z,72.89
2017-01-17T12:48:53.675Z,72.71
2017-01-17T12:50:04.051Z,72.52
2017-01-17T12:51:14.798Z,72.52
2017-01-17T12:52:25.553Z,72.52
2017-01-17T12:53:35.945Z,72.52
2017-01-17T12:54:46.680Z,72.52
2017-01-17T12:55:57.050Z,72.57
2017-01-17T12:57:07.808Z,72.29
2017-01-17T12:58:18.573Z,72.38
2017-01-17T12:59:29.356Z,72.48
2017-01-17T13:00:39.368Z,72.38
2017-01-17T13:01:50.140Z,72.38
2017-01-17T13:03:00.553Z,72.48
2017-01-17T13:04:11.309Z,72.38
2017-01-17T13:05:22.065Z,72.38
2017-01-17T13:06:32.444Z,72.38
2017-01-17T13:07:42.807Z,72.38
2017-01-17T13:08:53.572Z,72.67
2017-01-17T13:10:03.954Z,72.33
2017-01-17T13:11:14.726Z,72.61
2017-01-17T13:12:25.099Z,72.61
2017-01-17T13:13:35.111Z,72.48
2017-01-17T13:14:45.456Z,72.42
2017-01-17T13:15:56.228Z,72.33
2017-01-17T13:17:06.576Z,72.42
2017-01-17T13:18:16.595Z,72.52
2017-01-17T13:19:27.388Z,72.42
2017-01-17T13:20:37.773Z,72.71
2017-01-17T13:21:47.326Z,72.42
2017-01-17T13:22:58.082Z,71.95
2017-01-17T13:24:08.053Z,72.48
2017-01-17T13:25:19.080Z,72.48
2017-01-17T13:26:29.048Z,72.38
2017-01-17T13:27:39.412Z,72.67
2017-01-17T13:28:50.177Z,72.67
2017-01-17T13:30:00.982Z,72.48
2017-01-17T13:31:11.779Z,72.67
2017-01-17T13:32:22.133Z,72.67
2017-01-17T13:33:32.495Z,72.48
2017-01-17T13:34:43.270Z,72.48
2017-01-17T13:35:54.010Z,72.48
2017-01-17T13:37:04.392Z,72.52
2017-01-17T13:38:15.161Z,72.33
2017-01-17T13:39:25.544Z,72.04
2017-01-17T13:40:35.548Z,72.14
2017-01-17T13:41:45.885Z,72.33
2017-01-17T13:42:56.253Z,72.33
2017-01-17T13:44:06.658Z,72.23
2017-01-17T13:45:16.231Z,72.99
2017-01-17T13:46:26.991Z,72.23
2017-01-17T13:47:37.728Z,72.33
2017-01-17T13:48:48.484Z,72.33
2017-01-17T13:49:59.250Z,72.33
2017-01-17T13:51:09.619Z,72.33
2017-01-17T13:52:20.384Z,72.52
2017-01-17T13:53:31.388Z,72.52
2017-01-17T13:54:41.351Z,72.04
2017-01-17T13:55:52.107Z,72.04
2017-01-17T13:57:02.465Z,73.08
2017-01-17T13:58:13.314Z,72.33
2017-01-17T13:59:23.672Z,72.23
2017-01-17T14:00:34.043Z,72.71
2017-01-17T14:01:44.422Z,72.71
2017-01-17T14:02:54.003Z,72.04
2017-01-17T14:04:04.748Z,72.52
2017-01-17T14:05:15.097Z,72.57
2017-01-17T14:06:25.453Z,72.67
2017-01-17T14:07:36.238Z,72.48
2017-01-17T14:08:47.007Z,72.77
2017-01-17T14:09:57.771Z,72.96
2017-01-17T14:11:08.180Z,73.05
2017-01-17T14:12:18.969Z,72.77
2017-01-17T14:13:29.387Z,72.96
2017-01-17T14:14:39.751Z,72.96
2017-01-17T14:15:50.499Z,72.96
2017-01-17T14:17:00.872Z,72.96
2017-01-17T14:18:11.653Z,72.57
2017-01-17T14:19:21.997Z,72.77
2017-01-17T14:20:32.351Z,72.77
2017-01-17T14:21:43.142Z,72.77
2017-01-17T14:22:53.925Z,72.96
2017-01-17T14:24:04.695Z,72.77
2017-01-17T14:25:15.107Z,72.86
2017-01-17T14:26:25.455Z,73.05
2017-01-17T14:27:35.910Z,72.67
2017-01-17T14:28:46.685Z,72.77
2017-01-17T14:29:57.042Z,72.77
2017-01-17T14:31:07.502Z,72.67
2017-01-17T14:32:17.885Z,72.77
2017-01-17T14:33:27.861Z,72.77
2017-01-17T14:34:38.218Z,72.77
2017-01-17T14:35:48.996Z,72.86
2017-01-17T14:36:59.790Z,72.96
2017-01-17T14:38:10.193Z,72.77
2017-01-17T14:39:20.935Z,72.77
2017-01-17T14:40:31.697Z,72.77
2017-01-17T14:41:42.458Z,72.77
2017-01-17T14:42:52.819Z,72.77
2017-01-17T14:44:02.777Z,72.86
2017-01-17T14:45:13.180Z,72.67
2017-01-17T14:46:23.549Z,72.48
2017-01-17T14:47:34.320Z,72.86
2017-01-17T14:48:44.328Z,72.77
2017-01-17T14:52:27.497Z,72.67
2017-01-17T14:56:09.937Z,72.53
2017-01-17T14:57:20.370Z,72.73
2017-01-17T14:58:31.121Z,73.01
2017-01-17T14:59:41.883Z,73.01
2017-01-17T15:00:52.368Z,73.11
2017-01-17T15:02:04.607Z,72.82
2017-01-17T15:03:16.964Z,73.11
2017-01-17T15:04:29.131Z,73.11
2017-01-17T15:05:40.284Z,73.11
2017-01-17T15:06:49.849Z,73.01
2017-01-17T15:08:00.213Z,72.82
2017-01-17T15:09:10.584Z,72.63
2017-01-17T15:10:21.363Z,72.53
2017-01-17T15:11:31.734Z,72.53
2017-01-17T15:12:42.104Z,72.73
2017-01-17T15:13:52.851Z,72.53
2017-01-17T15:15:02.028Z,73.2
2017-01-17T15:16:12.449Z,73.11
2017-01-17T15:17:22.846Z,72.92
2017-01-17T15:18:32.867Z,73.2
2017-01-17T15:19:43.616Z,73.01
2017-01-17T15:20:53.993Z,73.01
2017-01-17T15:22:04.380Z,73.01
2017-01-17T15:23:15.163Z,72.92
2017-01-17T15:24:25.154Z,73.01
2017-01-17T15:25:35.543Z,73.01
2017-01-17T15:26:45.902Z,72.88
2017-01-17T15:27:56.659Z,72.97
2017-01-17T15:29:06.621Z,72.88
2017-01-17T15:30:17.363Z,73.16
2017-01-17T15:31:27.721Z,72.88
2017-01-17T15:32:38.492Z,72.88
2017-01-17T15:33:49.040Z,73.16
2017-01-17T15:34:58.985Z,73.26
2017-01-17T15:36:09.377Z,72.88
2017-01-17T15:37:20.150Z,72.88
2017-01-17T15:38:30.931Z,73.07
2017-01-17T15:39:41.700Z,72.88
2017-01-17T15:40:52.455Z,73.16
2017-01-17T15:42:02.464Z,72.88
2017-01-17T15:43:12.823Z,73.16
2017-01-17T15:44:23.595Z,73.07
2017-01-17T15:45:33.971Z,72.88